Terminal Aerodrome Forecast
Issued by NWS

Home | Current Version | Previous Version | Text Only | Print | Product List | Glossary On
Versions: 1 2 3 4 5 6 7 8 9 10 11 12 13 14 15 16 17 18 19 20 21 22 23 24 25 26 27 28 29 30 31 32 33 34 35 36 37 38 39 40 41 42 43
000
FTUS45 KBOI 220928 AAB
TAFTWF
TAF AMD
KTWF 220928Z 2209/2306 16010KT P6SM VCTS SCT060CB OVC100
      TEMPO 2209/2210 2SM +TSRA SCT020 BKN050CB
     FM221800 27008KT P6SM OVC120
     FM222100 27010KT P6SM VCTS OVC080CB=

USA.gov is the U.S. government's official web portal to all federal, state and local government web resources and services.